Time;durP1;ratioP1;P1;durP2;ratioP2;P2;SDS_P1;SDS_P2;PMS_P1;PMS_P2;Temp;Humidity;BMP_temperature;BMP_pressure;BME280_temperature;BME280_humidity;BME280_pressure;Samples;Min_cycle;Max_cycle;Signal;HPM_P1;HPM_P2
2023/07/07 00:02:11;;;;;;;1.02;0.40;;;15.50;99.90;;;;;;4992299;28;20190;-83
2023/07/07 00:04:43;;;;;;;0.57;0.50;;;15.60;99.90;;;;;;4991686;28;20674;-84
2023/07/07 00:07:14;;;;;;;0.95;0.30;;;15.70;99.90;;;;;;5004701;28;20209;-84
2023/07/07 00:09:46;;;;;;;0.70;0.40;;;15.80;99.90;;;;;;5003577;28;20199;-84
2023/07/07 00:12:18;;;;;;;0.73;0.30;;;16.00;99.90;;;;;;4992675;28;20668;-84
2023/07/07 00:14:49;;;;;;;0.43;0.20;;;16.00;99.90;;;;;;4991687;28;20206;-84
2023/07/07 00:17:24;;;;;;;0.30;0.30;;;16.10;99.90;;;;;;4991546;28;20261;-83
2023/07/07 00:19:56;;;;;;;0.25;0.20;;;16.10;99.90;;;;;;4991336;28;20198;-84
2023/07/07 00:22:27;;;;;;;0.20;0.20;;;16.20;99.90;;;;;;4998817;28;20204;-84
2023/07/07 00:24:58;;;;;;;0.35;0.30;;;16.30;99.90;;;;;;5009941;28;20276;-84
2023/07/07 00:27:29;;;;;;;0.20;0.20;;;16.30;99.90;;;;;;4992238;28;20217;-84
2023/07/07 00:30:00;;;;;;;1.27;0.20;;;16.40;99.90;;;;;;4991887;28;20203;-84
2023/07/07 00:32:33;;;;;;;0.28;0.17;;;16.40;99.90;;;;;;5001108;28;20205;-84
2023/07/07 00:35:04;;;;;;;0.10;0.10;;;16.40;99.90;;;;;;5010277;28;20213;-84
2023/07/07 00:37:36;;;;;;;0.20;0.20;;;16.40;99.90;;;;;;4991265;28;20582;-84
2023/07/07 00:40:08;;;;;;;0.15;0.15;;;16.40;99.90;;;;;;4998720;28;20187;-84
2023/07/07 00:42:40;;;;;;;0.30;0.22;;;16.60;99.90;;;;;;4999422;28;20206;-84
2023/07/07 00:45:17;;;;;;;0.17;0.17;;;16.60;99.90;;;;;;5008806;28;20723;-84
2023/07/07 00:47:59;;;;;;;0.13;0.13;;;16.70;99.90;;;;;;5010283;28;20556;-84
2023/07/07 00:50:33;;;;;;;0.50;0.30;;;16.80;99.90;;;;;;5011118;28;20198;-83
2023/07/07 00:53:04;;;;;;;0.45;0.30;;;16.70;99.90;;;;;;5006401;28;20225;-84
2023/07/07 00:55:40;;;;;;;0.35;0.35;;;16.90;99.90;;;;;;4990935;28;20230;-85
2023/07/07 00:58:14;;;;;;;0.77;0.30;;;16.90;99.90;;;;;;4999055;28;20661;-84
2023/07/07 01:00:50;;;;;;;0.10;0.10;;;16.80;99.90;;;;;;5009527;28;20194;-84
2023/07/07 01:03:27;;;;;;;0.52;0.20;;;16.90;99.90;;;;;;5010130;28;20197;-84
2023/07/07 01:06:01;;;;;;;0.30;0.20;;;17.00;99.90;;;;;;5010048;28;20328;-84
2023/07/07 01:08:33;;;;;;;0.43;0.20;;;17.10;99.90;;;;;;5011040;28;20226;-84
2023/07/07 01:11:04;;;;;;;1.10;0.30;;;17.00;99.90;;;;;;5011332;28;20558;-84
2023/07/07 01:13:35;;;;;;;0.68;0.20;;;17.10;99.90;;;;;;4991554;28;20195;-84
2023/07/07 01:16:16;;;;;;;1.65;0.30;;;17.10;99.90;;;;;;4991456;28;20209;-86
2023/07/07 01:18:57;;;;;;;1.08;0.28;;;17.10;99.90;;;;;;5001622;28;20195;-85
2023/07/07 01:21:35;;;;;;;0.68;0.28;;;17.30;99.90;;;;;;5004648;28;20224;-85
2023/07/07 01:24:45;;;;;;;0.88;0.30;;;17.30;99.90;;;;;;4999198;28;20194;-85
2023/07/07 01:27:43;;;;;;;0.52;0.38;;;17.30;99.90;;;;;;5004074;28;20222;-85
2023/07/07 01:30:45;;;;;;;0.50;0.30;;;17.40;99.90;;;;;;5008336;28;20201;-85
2023/07/07 01:33:19;;;;;;;0.40;0.40;;;17.50;99.90;;;;;;5014052;28;20198;-86
2023/07/07 01:35:51;;;;;;;1.58;0.52;;;17.50;99.90;;;;;;5006805;28;20202;-86
2023/07/07 01:38:36;;;;;;;0.70;0.40;;;17.50;99.90;;;;;;5014179;28;20197;-86
2023/07/07 01:41:18;;;;;;;4.10;0.45;;;17.60;99.90;;;;;;4998121;28;20202;-86
2023/07/07 01:43:56;;;;;;;1.55;0.47;;;17.70;99.90;;;;;;5005079;28;20198;-86
2023/07/07 01:46:32;;;;;;;0.98;0.50;;;17.70;99.90;;;;;;5014201;28;20229;-83
2023/07/07 01:49:11;;;;;;;1.92;0.50;;;17.70;99.90;;;;;;5006007;28;20194;-83
2023/07/07 01:51:49;;;;;;;1.92;0.52;;;17.70;99.90;;;;;;4999402;28;20190;-83
2023/07/07 01:54:22;;;;;;;1.50;0.43;;;17.80;99.90;;;;;;5007271;28;20218;-84
2023/07/07 01:56:56;;;;;;;2.15;0.45;;;17.90;99.90;;;;;;5011864;28;20190;-84
2023/07/07 01:59:28;;;;;;;2.05;0.40;;;18.00;99.90;;;;;;5014028;28;20198;-84
2023/07/07 02:02:03;;;;;;;0.73;0.28;;;18.00;99.90;;;;;;5014384;28;20197;-84
2023/07/07 02:04:34;;;;;;;0.68;0.32;;;18.00;99.90;;;;;;5014413;28;20205;-84
2023/07/07 02:07:05;;;;;;;0.32;0.32;;;18.00;99.50;;;;;;5014085;28;20225;-84
2023/07/07 02:09:37;;;;;;;1.60;0.25;;;18.00;98.80;;;;;;5012902;28;20206;-83
2023/07/07 02:12:09;;;;;;;1.48;0.70;;;18.10;99.00;;;;;;5013452;28;20201;-84
2023/07/07 02:14:40;;;;;;;1.30;0.43;;;18.00;97.00;;;;;;5012882;28;20209;-84
2023/07/07 02:17:15;;;;;;;0.90;0.50;;;17.70;97.20;;;;;;5013356;28;20198;-85
2023/07/07 02:19:46;;;;;;;1.65;0.60;;;17.70;97.30;;;;;;5013573;28;20197;-85
2023/07/07 02:22:18;;;;;;;1.00;0.30;;;17.70;97.80;;;;;;5013034;28;20220;-85
2023/07/07 02:24:50;;;;;;;0.70;0.30;;;18.00;98.10;;;;;;5016003;28;20200;-84
2023/07/07 02:27:21;;;;;;;3.55;1.08;;;17.90;96.20;;;;;;5014713;28;20239;-85
2023/07/07 02:29:52;;;;;;;1.15;0.40;;;17.90;96.30;;;;;;5013222;28;20553;-85
2023/07/07 02:32:25;;;;;;;0.30;0.30;;;18.10;97.30;;;;;;5013232;28;20193;-85
2023/07/07 02:34:57;;;;;;;1.08;0.30;;;18.20;97.20;;;;;;5000396;28;20203;-84
2023/07/07 02:37:28;;;;;;;4.13;0.50;;;18.40;97.50;;;;;;5003725;28;20197;-84
2023/07/07 02:39:59;;;;;;;3.40;0.40;;;18.60;96.20;;;;;;4997150;28;20210;-83
2023/07/07 02:42:30;;;;;;;1.27;0.40;;;18.60;96.10;;;;;;5010884;28;20707;-84
2023/07/07 02:45:01;;;;;;;0.30;0.30;;;18.70;96.20;;;;;;4996949;28;20203;-84
2023/07/07 02:47:34;;;;;;;1.15;0.50;;;18.70;95.10;;;;;;5000061;28;20314;-84
2023/07/07 02:50:06;;;;;;;0.77;0.40;;;18.60;94.70;;;;;;5013673;28;20213;-84
2023/07/07 02:52:37;;;;;;;0.28;0.28;;;18.60;94.90;;;;;;5025273;28;20233;-85
2023/07/07 02:55:08;;;;;;;0.35;0.25;;;18.60;94.70;;;;;;5014936;28;20228;-85
2023/07/07 02:57:41;;;;;;;0.70;0.40;;;18.70;94.70;;;;;;5013635;28;20202;-86
2023/07/07 03:00:14;;;;;;;0.65;0.47;;;18.70;94.10;;;;;;5003054;28;20210;-86
2023/07/07 03:02:48;;;;;;;0.47;0.30;;;18.70;94.20;;;;;;4993761;28;20241;-86
2023/07/07 03:05:19;;;;;;;1.17;0.25;;;18.70;94.60;;;;;;4993374;28;20284;-85
2023/07/07 03:07:50;;;;;;;1.77;0.30;;;18.60;93.90;;;;;;4993435;28;20230;-85
2023/07/07 03:10:22;;;;;;;0.85;0.43;;;18.70;93.30;;;;;;4993113;28;20199;-86
2023/07/07 03:12:53;;;;;;;1.05;0.38;;;18.70;94.40;;;;;;5005554;28;20202;-85
2023/07/07 03:15:24;;;;;;;0.50;0.30;;;18.70;94.10;;;;;;5012899;28;20208;-83
2023/07/07 03:17:57;;;;;;;1.17;0.55;;;18.80;93.90;;;;;;5008979;28;20233;-86
2023/07/07 03:20:32;;;;;;;0.43;0.35;;;18.80;93.30;;;;;;5012300;28;20200;-82
2023/07/07 03:23:03;;;;;;;0.50;0.30;;;18.80;92.40;;;;;;5006408;28;20203;-86
2023/07/07 03:25:35;;;;;;;0.85;0.50;;;18.80;92.80;;;;;;5006259;28;20198;-86
2023/07/07 03:28:06;;;;;;;0.60;0.60;;;18.70;91.40;;;;;;5012111;28;20198;-87
2023/07/07 03:30:39;;;;;;;2.72;0.60;;;18.60;92.20;;;;;;5010230;28;20192;-87
2023/07/07 03:33:13;;;;;;;1.40;0.90;;;18.50;92.90;;;;;;5002675;28;20202;-86
2023/07/07 03:35:44;;;;;;;1.73;0.55;;;18.60;92.60;;;;;;5013023;28;20332;-86
2023/07/07 03:38:17;;;;;;;0.57;0.38;;;18.50;91.90;;;;;;4996388;28;20214;-85
2023/07/07 03:40:52;;;;;;;0.30;0.30;;;18.40;92.10;;;;;;4992744;28;20206;-83
2023/07/07 03:43:23;;;;;;;0.63;0.30;;;18.50;92.10;;;;;;4999216;28;20205;-84
2023/07/07 03:45:54;;;;;;;0.40;0.30;;;18.50;91.70;;;;;;5011366;28;20198;-84
2023/07/07 03:48:27;;;;;;;0.80;0.50;;;18.50;91.90;;;;;;5011391;28;20190;-84
2023/07/07 03:51:03;;;;;;;0.30;0.30;;;18.50;91.90;;;;;;5002623;28;20569;-84
2023/07/07 03:53:35;;;;;;;0.20;0.20;;;18.60;91.90;;;;;;4991980;28;20234;-86
2023/07/07 03:56:07;;;;;;;0.30;0.30;;;18.70;91.20;;;;;;5005520;28;20201;-84
2023/07/07 03:58:38;;;;;;;1.92;0.47;;;18.80;91.00;;;;;;5011878;28;20194;-84
2023/07/07 04:01:10;;;;;;;1.05;0.40;;;18.80;90.70;;;;;;5000432;28;20234;-85
2023/07/07 04:03:44;;;;;;;0.93;0.35;;;18.70;90.60;;;;;;5000125;28;20202;-84
2023/07/07 04:06:16;;;;;;;0.50;0.20;;;18.80;91.40;;;;;;5011390;28;20218;-84
2023/07/07 04:08:47;;;;;;;0.20;0.20;;;18.90;91.20;;;;;;5010467;28;20198;-84
2023/07/07 04:11:20;;;;;;;0.43;0.40;;;19.00;90.70;;;;;;5011652;28;20574;-85
2023/07/07 04:13:52;;;;;;;0.28;0.20;;;18.90;89.30;;;;;;5011592;28;20212;-85
2023/07/07 04:16:26;;;;;;;0.77;0.28;;;18.90;90.20;;;;;;5011622;28;20197;-84
2023/07/07 04:18:59;;;;;;;0.63;0.20;;;18.90;89.60;;;;;;5008128;28;20615;-85
2023/07/07 04:21:32;;;;;;;0.22;0.20;;;18.90;89.60;;;;;;5004284;28;20204;-84
2023/07/07 04:24:04;;;;;;;0.30;0.20;;;18.90;89.00;;;;;;5009505;28;20281;-86
2023/07/07 04:26:38;;;;;;;0.45;0.30;;;18.90;89.60;;;;;;5001526;28;20224;-86
2023/07/07 04:29:09;;;;;;;0.77;0.20;;;18.90;90.30;;;;;;4992859;28;20647;-85
2023/07/07 04:31:44;;;;;;;0.25;0.20;;;18.90;89.00;;;;;;5010213;28;20568;-85
2023/07/07 04:34:18;;;;;;;0.30;0.10;;;18.90;90.10;;;;;;5010719;28;20189;-86
2023/07/07 04:36:49;;;;;;;0.55;0.10;;;18.90;88.90;;;;;;5001436;28;20791;-85
2023/07/07 04:39:20;;;;;;;0.73;0.50;;;18.90;88.70;;;;;;5011012;28;20205;-86
2023/07/07 04:41:53;;;;;;;2.22;0.20;;;19.00;88.60;;;;;;5007661;28;20208;-85
2023/07/07 04:44:24;;;;;;;0.47;0.20;;;19.00;88.80;;;;;;5010724;28;20186;-85
2023/07/07 04:46:55;;;;;;;1.75;0.80;;;19.00;89.50;;;;;;5010623;28;20232;-84
2023/07/07 04:49:29;;;;;;;0.68;0.30;;;19.00;88.70;;;;;;5010924;28;20218;-86
2023/07/07 04:52:00;;;;;;;1.15;0.80;;;19.00;84.00;;;;;;5010343;28;20221;-85
2023/07/07 04:54:31;;;;;;;5.78;2.50;;;18.90;82.70;;;;;;5010851;28;20205;-86
2023/07/07 04:57:03;;;;;;;1.00;0.70;;;18.90;81.60;;;;;;5011348;28;20202;-85
2023/07/07 04:59:34;;;;;;;0.60;0.38;;;18.80;79.50;;;;;;4996834;28;20722;-86
2023/07/07 05:02:05;;;;;;;0.75;0.28;;;18.80;80.20;;;;;;4991717;28;20217;-85
2023/07/07 05:04:38;;;;;;;0.70;0.20;;;18.60;80.30;;;;;;4990793;28;20202;-85
2023/07/07 05:07:09;;;;;;;0.22;0.20;;;18.70;81.90;;;;;;4990691;28;20234;-85
2023/07/07 05:09:40;;;;;;;0.22;0.20;;;18.70;80.80;;;;;;5008270;28;20653;-85
2023/07/07 05:12:13;;;;;;;0.30;0.20;;;18.70;82.50;;;;;;5014713;28;20194;-85
2023/07/07 05:14:44;;;;;;;0.30;0.30;;;18.80;81.50;;;;;;5012606;28;20228;-85
2023/07/07 05:17:15;;;;;;;0.47;0.30;;;18.80;81.40;;;;;;5010613;28;20209;-85
2023/07/07 05:19:48;;;;;;;0.30;0.30;;;18.80;81.60;;;;;;5010574;28;20244;-85
2023/07/07 05:22:20;;;;;;;0.90;0.40;;;18.80;81.30;;;;;;5010288;28;20604;-85
2023/07/07 05:24:51;;;;;;;1.25;0.60;;;18.70;81.40;;;;;;5010560;28;20276;-85
2023/07/07 05:27:22;;;;;;;0.63;0.30;;;18.70;82.30;;;;;;5010276;28;20224;-84
2023/07/07 05:29:54;;;;;;;0.50;0.20;;;18.80;81.10;;;;;;5010279;28;20194;-85
2023/07/07 05:32:25;;;;;;;0.20;0.20;;;18.80;81.80;;;;;;5005425;28;20209;-85
2023/07/07 05:34:59;;;;;;;0.30;0.28;;;18.80;81.50;;;;;;5002216;28;20198;-85
2023/07/07 05:37:30;;;;;;;0.75;0.50;;;18.80;81.60;;;;;;5010406;28;20568;-85
2023/07/07 05:40:02;;;;;;;0.22;0.22;;;18.70;81.20;;;;;;5010331;28;20684;-84
2023/07/07 05:42:33;;;;;;;0.75;0.20;;;18.70;81.60;;;;;;5010703;28;20285;-85
2023/07/07 05:45:04;;;;;;;3.00;0.40;;;18.80;83.00;;;;;;5010947;28;20201;-84
2023/07/07 05:47:35;;;;;;;2.10;1.40;;;18.80;81.70;;;;;;5010084;28;20232;-85
2023/07/07 05:50:10;;;;;;;2.33;0.70;;;18.80;82.60;;;;;;5000505;28;20566;-85
2023/07/07 05:52:41;;;;;;;0.57;0.50;;;18.80;82.90;;;;;;4990436;28;20237;-85
2023/07/07 05:55:28;;;;;;;1.02;0.73;;;18.80;82.10;;;;;;4996418;28;20206;-85
2023/07/07 05:57:59;;;;;;;1.40;1.30;;;18.70;81.50;;;;;;5010238;28;20233;-85
2023/07/07 06:00:31;;;;;;;0.40;0.40;;;18.80;82.20;;;;;;5010079;28;20240;-84
2023/07/07 06:03:02;;;;;;;0.90;0.40;;;18.80;81.50;;;;;;5004208;28;20201;-85
2023/07/07 06:05:35;;;;;;;0.65;0.40;;;18.80;80.90;;;;;;5010388;28;20201;-85
2023/07/07 06:08:07;;;;;;;0.45;0.30;;;18.80;82.00;;;;;;4991794;28;20234;-85
2023/07/07 06:10:38;;;;;;;0.85;0.38;;;18.70;80.90;;;;;;4990302;28;20207;-85
2023/07/07 06:13:09;;;;;;;0.40;0.30;;;18.80;82.20;;;;;;5002640;28;20194;-85
2023/07/07 06:15:40;;;;;;;0.52;0.40;;;18.70;82.10;;;;;;4998127;28;20646;-85
2023/07/07 06:18:12;;;;;;;1.50;0.30;;;18.70;82.60;;;;;;4993956;28;20191;-85
2023/07/07 06:20:49;;;;;;;0.73;0.40;;;18.80;82.70;;;;;;4996156;28;20198;-85
2023/07/07 06:23:20;;;;;;;0.30;0.30;;;18.80;82.90;;;;;;5009462;28;20205;-86
2023/07/07 06:25:52;;;;;;;0.77;0.32;;;18.80;82.40;;;;;;4993792;28;20205;-86
2023/07/07 06:28:24;;;;;;;0.30;0.30;;;18.80;83.60;;;;;;5013878;28;20597;-86
2023/07/07 06:30:55;;;;;;;0.98;0.40;;;18.80;83.30;;;;;;5028365;28;20670;-85
2023/07/07 06:33:27;;;;;;;1.65;0.55;;;18.70;83.40;;;;;;5004293;28;20202;-85
2023/07/07 06:36:00;;;;;;;0.45;0.30;;;18.60;84.30;;;;;;4996428;28;20198;-85
2023/07/07 06:38:31;;;;;;;0.30;0.20;;;18.50;82.60;;;;;;5007279;28;20591;-86
2023/07/07 06:41:02;;;;;;;0.28;0.28;;;18.40;83.00;;;;;;5003847;28;20211;-86
2023/07/07 06:43:34;;;;;;;0.40;0.40;;;18.40;84.30;;;;;;4994193;28;20199;-84
2023/07/07 06:46:06;;;;;;;1.92;0.30;;;18.20;84.10;;;;;;5003882;28;20213;-85
2023/07/07 06:48:37;;;;;;;0.40;0.40;;;18.20;84.60;;;;;;5010875;28;20225;-85
2023/07/07 06:51:12;;;;;;;0.50;0.40;;;18.10;85.10;;;;;;4993555;28;20204;-85
2023/07/07 06:53:43;;;;;;;4.47;2.25;;;17.90;86.10;;;;;;4993177;28;20238;-85
2023/07/07 06:56:14;;;;;;;1.00;0.40;;;17.80;87.00;;;;;;5012802;28;20205;-85
2023/07/07 06:58:45;;;;;;;0.45;0.40;;;17.70;86.50;;;;;;5010511;28;20209;-83
2023/07/07 07:01:16;;;;;;;1.45;0.30;;;17.70;87.30;;;;;;4993512;28;20191;-85
2023/07/07 07:03:47;;;;;;;0.40;0.40;;;17.50;87.30;;;;;;4997645;28;20206;-85
2023/07/07 07:06:21;;;;;;;1.30;0.40;;;17.50;88.40;;;;;;5008191;28;20205;-84
2023/07/07 07:08:52;;;;;;;0.52;0.52;;;17.40;88.40;;;;;;5010985;28;20596;-84
2023/07/07 07:11:23;;;;;;;0.80;0.50;;;17.40;88.80;;;;;;5011991;28;20661;-83
2023/07/07 07:13:54;;;;;;;2.10;0.35;;;17.40;89.40;;;;;;5011493;28;20205;-83
2023/07/07 07:16:27;;;;;;;0.60;0.60;;;17.40;89.30;;;;;;4994460;28;20226;-83
2023/07/07 07:18:59;;;;;;;1.05;0.80;;;17.20;89.70;;;;;;5015259;28;20205;-83
2023/07/07 07:21:32;;;;;;;0.77;0.70;;;17.20;90.20;;;;;;5014111;28;20194;-84
2023/07/07 07:24:03;;;;;;;0.93;0.70;;;17.10;90.50;;;;;;5012690;28;20209;-82
2023/07/07 07:26:34;;;;;;;1.10;0.80;;;17.20;90.50;;;;;;5011652;28;20571;-83
2023/07/07 07:29:06;;;;;;;2.33;1.30;;;17.20;90.50;;;;;;5008199;28;20226;-84
2023/07/07 07:31:37;;;;;;;2.10;1.13;;;17.10;91.10;;;;;;5008115;28;20278;-84
2023/07/07 07:34:27;;;;;;;1.67;0.98;;;17.10;91.30;;;;;;4992560;28;20205;-85
2023/07/07 07:37:01;;;;;;;3.65;1.48;;;17.00;91.70;;;;;;4992838;28;20577;-84
2023/07/07 07:39:33;;;;;;;1.25;0.70;;;17.00;91.80;;;;;;4992902;28;20210;-85
2023/07/07 07:42:04;;;;;;;1.45;0.90;;;16.80;91.60;;;;;;4992962;28;20207;-85
2023/07/07 07:44:35;;;;;;;1.67;0.77;;;16.80;91.20;;;;;;5003367;28;20588;-84
2023/07/07 07:47:07;;;;;;;1.38;1.00;;;16.70;91.30;;;;;;4999393;28;20201;-84
2023/07/07 07:49:39;;;;;;;3.95;2.00;;;16.70;91.30;;;;;;5006394;28;20199;-85
2023/07/07 07:52:12;;;;;;;2.47;1.30;;;16.70;91.60;;;;;;5011631;28;20240;-85
2023/07/07 07:54:43;;;;;;;5.35;3.72;;;16.70;91.40;;;;;;5010978;28;20194;-85
2023/07/07 07:57:16;;;;;;;2.30;1.60;;;16.60;91.60;;;;;;5011361;28;20194;-85
2023/07/07 07:59:47;;;;;;;2.30;1.30;;;16.60;91.70;;;;;;5011173;28;20614;-85
2023/07/07 08:02:18;;;;;;;1.65;0.82;;;16.50;92.10;;;;;;5011292;28;20216;-83
2023/07/07 08:04:49;;;;;;;2.05;0.90;;;16.40;92.20;;;;;;5011220;28;20206;-84
2023/07/07 08:07:25;;;;;;;2.58;0.70;;;16.50;92.60;;;;;;4996607;28;20688;-83
2023/07/07 08:09:56;;;;;;;1.10;0.80;;;16.40;92.10;;;;;;5008089;28;20245;-83
2023/07/07 08:12:27;;;;;;;1.25;0.90;;;16.30;92.10;;;;;;5011091;28;20208;-84
2023/07/07 08:14:58;;;;;;;1.65;1.00;;;16.30;92.20;;;;;;5010135;28;20628;-85
2023/07/07 08:17:30;;;;;;;0.73;0.60;;;16.30;92.40;;;;;;5011123;28;20206;-84
2023/07/07 08:20:01;;;;;;;3.83;3.35;;;16.20;92.40;;;;;;5010968;28;20194;-84
2023/07/07 08:22:34;;;;;;;4.65;3.67;;;16.20;92.60;;;;;;5010409;28;20553;-83
2023/07/07 08:25:05;;;;;;;8.23;5.30;;;16.10;93.20;;;;;;5010714;28;20209;-84
2023/07/07 08:27:36;;;;;;;4.00;2.67;;;16.10;93.30;;;;;;4995248;28;20220;-84
2023/07/07 08:30:08;;;;;;;4.32;3.20;;;16.10;93.30;;;;;;5004855;28;20198;-84
2023/07/07 08:32:39;;;;;;;5.97;3.28;;;16.00;93.70;;;;;;5010522;28;20670;-84
2023/07/07 08:35:12;;;;;;;1.00;0.70;;;15.90;93.70;;;;;;4999959;28;20200;-84
2023/07/07 08:37:45;;;;;;;1.38;0.70;;;15.90;93.40;;;;;;5011499;28;20202;-85
2023/07/07 08:40:21;;;;;;;1.30;0.90;;;15.90;93.40;;;;;;4994892;28;20209;-84
2023/07/07 08:42:53;;;;;;;1.77;0.90;;;15.90;93.10;;;;;;4992448;28;20225;-83
2023/07/07 08:45:25;;;;;;;1.33;0.82;;;16.00;93.00;;;;;;5011070;28;20216;-83
2023/07/07 08:48:09;;;;;;;2.60;1.50;;;15.90;93.20;;;;;;5009851;28;20228;-83
2023/07/07 08:50:45;;;;;;;1.30;0.75;;;15.90;93.30;;;;;;5011207;28;20572;-83
2023/07/07 08:53:39;;;;;;;0.68;0.68;;;15.80;93.80;;;;;;5001553;28;20236;-84
2023/07/07 08:56:17;;;;;;;0.60;0.60;;;15.80;93.70;;;;;;4995229;28;20205;-84
2023/07/07 08:59:00;;;;;;;3.92;1.63;;;15.80;94.00;;;;;;4991328;28;20203;-86
2023/07/07 09:01:43;;;;;;;1.52;1.10;;;15.70;94.00;;;;;;5003100;28;20284;-85
2023/07/07 09:04:33;;;;;;;2.72;1.40;;;15.70;94.00;;;;;;5009781;28;20206;-85
2023/07/07 09:07:34;;;;;;;2.00;1.70;;;15.70;94.40;;;;;;5002012;28;20281;-84
2023/07/07 09:10:35;;;;;;;2.83;1.73;;;15.70;95.00;;;;;;4988693;28;20195;-82
2023/07/07 09:13:14;;;;;;;1.80;1.25;;;15.60;94.90;;;;;;5002622;28;20662;-82
2023/07/07 09:15:52;;;;;;;3.35;2.83;;;15.50;95.30;;;;;;5010759;28;20201;-84
2023/07/07 09:18:28;;;;;;;6.35;2.83;;;15.50;95.40;;;;;;5011041;28;20202;-83
2023/07/07 09:21:02;;;;;;;2.00;1.23;;;15.50;95.30;;;;;;5007182;28;20198;-83
2023/07/07 09:23:37;;;;;;;2.25;1.30;;;15.50;95.70;;;;;;5002175;28;20577;-83
2023/07/07 09:26:21;;;;;;;2.83;1.98;;;15.40;96.00;;;;;;5010799;28;20240;-85
2023/07/07 09:28:55;;;;;;;1.50;1.30;;;15.50;96.20;;;;;;5002674;28;20615;-84
2023/07/07 09:31:34;;;;;;;3.72;1.85;;;15.50;96.30;;;;;;4996191;28;20210;-85
2023/07/07 09:34:06;;;;;;;2.63;1.55;;;15.50;97.00;;;;;;4991952;28;20209;-84
2023/07/07 09:36:41;;;;;;;3.08;1.40;;;15.40;97.60;;;;;;5003295;28;20213;-84
2023/07/07 09:39:48;;;;;;;2.10;1.60;;;15.50;97.90;;;;;;5010218;28;20559;-83
2023/07/07 09:42:37;;;;;;;2.92;1.92;;;15.40;98.50;;;;;;5008879;28;20205;-84
2023/07/07 09:45:19;;;;;;;3.22;1.77;;;15.40;99.70;;;;;;5011103;28;20194;-83
2023/07/07 09:47:58;;;;;;;2.75;1.90;;;15.30;99.90;;;;;;5008901;28;20230;-84
2023/07/07 09:50:34;;;;;;;3.90;1.95;;;15.20;99.90;;;;;;5000265;28;20195;-84
2023/07/07 09:53:13;;;;;;;3.20;1.58;;;15.20;99.90;;;;;;4995553;28;20249;-84
2023/07/07 09:55:45;;;;;;;4.60;1.92;;;15.20;99.90;;;;;;4997260;28;20233;-85
2023/07/07 09:58:20;;;;;;;3.72;1.55;;;15.10;99.90;;;;;;5014247;28;20198;-82
2023/07/07 10:00:54;;;;;;;3.33;1.60;;;15.10;99.90;;;;;;5000916;28;20198;-83
2023/07/07 10:03:30;;;;;;;2.35;1.48;;;15.00;99.90;;;;;;4994796;28;20202;-84
2023/07/07 10:06:04;;;;;;;2.65;1.45;;;15.00;99.90;;;;;;5008604;28;20204;-86
2023/07/07 10:08:36;;;;;;;3.22;1.95;;;14.90;99.90;;;;;;5011106;28;20232;-86
2023/07/07 10:11:20;;;;;;;2.72;1.58;;;14.90;99.90;;;;;;5004449;28;20182;-86
2023/07/07 10:13:55;;;;;;;1.92;1.40;;;14.90;99.90;;;;;;5014727;28;20206;-84
2023/07/07 10:16:41;;;;;;;1.95;1.40;;;14.90;99.90;;;;;;5013958;28;20197;-85
2023/07/07 10:19:14;;;;;;;5.10;2.42;;;14.90;99.90;;;;;;5013263;28;20202;-85
2023/07/07 10:21:46;;;;;;;4.22;1.30;;;14.90;99.90;;;;;;5000833;28;20207;-85
2023/07/07 10:24:18;;;;;;;5.60;2.70;;;14.80;99.90;;;;;;4994479;28;20492;-86
2023/07/07 10:26:50;;;;;;;4.50;1.92;;;14.80;99.90;;;;;;4996396;28;20214;-83
2023/07/07 10:29:27;;;;;;;1.95;1.40;;;14.70;99.90;;;;;;4999371;28;20221;-84
2023/07/07 10:31:58;;;;;;;4.75;2.00;;;14.70;99.90;;;;;;5011111;28;20228;-84
2023/07/07 10:34:34;;;;;;;5.45;2.65;;;14.70;99.90;;;;;;5013609;28;20229;-84
2023/07/07 10:37:17;;;;;;;4.38;2.30;;;14.70;99.90;;;;;;5013662;28;20281;-85
2023/07/07 10:39:55;;;;;;;6.50;2.45;;;14.70;99.90;;;;;;5005727;28;20202;-85
2023/07/07 10:42:27;;;;;;;10.88;4.60;;;14.60;99.90;;;;;;4993852;28;20204;-85
2023/07/07 10:45:02;;;;;;;4.00;2.50;;;14.50;99.90;;;;;;5012091;28;20255;-85
2023/07/07 10:47:35;;;;;;;4.28;2.72;;;14.60;99.90;;;;;;5012872;28;20648;-85
2023/07/07 10:50:12;;;;;;;6.35;4.10;;;14.50;99.90;;;;;;5005074;28;20757;-85
2023/07/07 10:53:05;;;;;;;6.03;3.70;;;14.50;99.90;;;;;;4993527;28;20261;-84
2023/07/07 10:55:40;;;;;;;6.55;2.10;;;14.40;99.90;;;;;;4998489;28;20284;-84
2023/07/07 10:58:26;;;;;;;3.30;1.75;;;14.40;99.90;;;;;;5012892;28;20193;-84
2023/07/07 11:01:08;;;;;;;3.42;1.85;;;14.30;99.90;;;;;;5011251;28;20202;-84
2023/07/07 11:04:01;;;;;;;2.78;1.67;;;14.20;99.90;;;;;;5008779;28;20681;-83
2023/07/07 11:06:40;;;;;;;5.53;2.90;;;14.20;99.90;;;;;;4993406;28;20230;-84
2023/07/07 11:09:26;;;;;;;2.95;2.00;;;14.20;99.90;;;;;;5004367;28;20224;-84
2023/07/07 11:12:05;;;;;;;2.65;1.70;;;14.20;99.90;;;;;;5010958;28;20202;-85
2023/07/07 11:14:50;;;;;;;4.90;1.80;;;14.20;99.90;;;;;;4993435;28;20198;-84
2023/07/07 11:17:39;;;;;;;3.17;1.85;;;14.20;99.90;;;;;;4993752;28;20202;-84
2023/07/07 11:20:43;;;;;;;3.15;2.47;;;14.20;99.90;;;;;;5012323;28;20210;-86
2023/07/07 11:23:46;;;;;;;2.92;1.90;;;14.20;99.90;;;;;;5002649;28;20190;-84
2023/07/07 11:26:26;;;;;;;2.65;1.77;;;14.10;99.90;;;;;;4999338;28;20198;-84
2023/07/07 11:29:05;;;;;;;2.70;1.85;;;14.10;99.90;;;;;;5010693;28;20316;-84
2023/07/07 11:31:59;;;;;;;3.42;2.03;;;14.20;99.90;;;;;;4993375;28;20199;-84
2023/07/07 11:34:45;;;;;;;3.30;1.70;;;14.20;99.90;;;;;;4999101;28;20206;-83
2023/07/07 11:37:27;;;;;;;3.97;2.03;;;14.20;99.90;;;;;;4992672;28;20208;-84
2023/07/07 11:40:14;;;;;;;2.33;1.80;;;14.10;99.90;;;;;;5003377;28;20198;-84
2023/07/07 11:43:08;;;;;;;2.42;1.80;;;14.00;99.90;;;;;;5011567;28;20196;-84
2023/07/07 11:45:48;;;;;;;1.92;1.60;;;14.00;99.90;;;;;;5007409;28;20201;-83
2023/07/07 11:48:29;;;;;;;3.15;1.63;;;13.90;99.90;;;;;;5008371;28;20213;-84
2023/07/07 11:51:18;;;;;;;2.75;1.70;;;13.90;99.90;;;;;;5012214;28;20197;-84
2023/07/07 11:54:17;;;;;;;2.88;1.92;;;13.90;99.90;;;;;;4992753;28;20249;-84
2023/07/07 11:57:09;;;;;;;6.28;2.50;;;13.90;99.90;;;;;;4992586;28;20286;-86
2023/07/07 11:59:57;;;;;;;3.20;1.90;;;13.90;99.90;;;;;;4992549;28;20198;-85
2023/07/07 12:02:34;;;;;;;3.65;2.13;;;14.00;99.90;;;;;;5003674;28;20214;-85
2023/07/07 12:05:07;;;;;;;6.35;2.00;;;14.00;99.90;;;;;;5011478;28;20661;-86
2023/07/07 12:07:44;;;;;;;7.20;2.35;;;14.10;99.90;;;;;;5012122;28;20189;-83
2023/07/07 12:10:22;;;;;;;4.10;1.70;;;14.00;99.90;;;;;;5006095;28;20214;-84
2023/07/07 12:12:58;;;;;;;4.07;1.67;;;13.80;99.90;;;;;;5007464;28;20290;-85
2023/07/07 12:15:33;;;;;;;4.35;2.03;;;13.70;99.90;;;;;;5007908;28;20197;-82
2023/07/07 12:18:13;;;;;;;2.20;1.90;;;13.70;99.90;;;;;;4992395;28;20218;-83
2023/07/07 12:20:48;;;;;;;3.92;1.92;;;13.70;99.90;;;;;;4993030;28;20214;-85
2023/07/07 12:23:29;;;;;;;3.97;1.85;;;13.70;99.90;;;;;;4991934;28;20575;-85
2023/07/07 12:26:04;;;;;;;4.63;1.73;;;13.80;99.90;;;;;;5010533;28;20613;-86
2023/07/07 12:28:36;;;;;;;3.22;1.85;;;13.80;99.90;;;;;;5010900;28;20665;-85
2023/07/07 12:31:08;;;;;;;5.78;1.70;;;13.80;99.90;;;;;;5011792;28;20210;-85
2023/07/07 12:33:44;;;;;;;4.80;1.83;;;13.70;99.90;;;;;;5011646;28;20198;-85
2023/07/07 12:36:18;;;;;;;2.97;1.40;;;13.70;99.90;;;;;;5011141;28;20661;-84
2023/07/07 12:38:57;;;;;;;2.17;1.52;;;13.80;99.90;;;;;;5010478;28;20720;-84
2023/07/07 12:41:29;;;;;;;3.78;1.50;;;13.80;99.90;;;;;;5010895;28;20312;-84
2023/07/07 12:44:04;;;;;;;3.25;1.60;;;13.80;99.90;;;;;;5011046;28;20986;-84
2023/07/07 12:46:38;;;;;;;1.65;1.20;;;13.80;99.90;;;;;;5011589;28;20214;-83
2023/07/07 12:49:10;;;;;;;2.53;1.67;;;13.80;99.90;;;;;;5007708;28;20288;-83
2023/07/07 12:51:41;;;;;;;3.58;1.33;;;13.80;99.90;;;;;;5010908;28;20198;-82
2023/07/07 12:54:33;;;;;;;5.72;1.40;;;13.80;99.90;;;;;;5010336;28;20207;-84
2023/07/07 12:57:07;;;;;;;2.33;1.30;;;13.70;99.90;;;;;;4997005;28;20195;-82
2023/07/07 12:59:39;;;;;;;4.25;1.77;;;13.60;99.90;;;;;;5011333;28;20200;-82
2023/07/07 13:02:22;;;;;;;3.85;2.30;;;13.50;99.90;;;;;;5007510;28;20199;-84
2023/07/07 13:04:57;;;;;;;3.75;2.40;;;13.50;99.90;;;;;;4996113;28;20209;-84
2023/07/07 13:07:32;;;;;;;2.47;2.00;;;13.50;99.90;;;;;;5006873;28;20194;-84
2023/07/07 13:10:08;;;;;;;1.75;1.60;;;13.50;99.90;;;;;;5006719;28;20218;-84
2023/07/07 13:12:45;;;;;;;1.88;1.27;;;13.40;99.90;;;;;;4998515;28;20657;-83
2023/07/07 13:15:27;;;;;;;1.85;1.38;;;13.40;99.90;;;;;;5010849;28;20212;-84
2023/07/07 13:17:59;;;;;;;1.35;1.20;;;13.50;99.90;;;;;;5009664;28;20198;-83
2023/07/07 13:20:30;;;;;;;1.90;1.00;;;13.60;99.90;;;;;;4999517;28;20218;-85
2023/07/07 13:23:08;;;;;;;1.20;1.10;;;13.50;99.90;;;;;;5010604;28;20235;-84
2023/07/07 13:25:45;;;;;;;1.38;1.08;;;13.60;99.90;;;;;;4998928;28;20209;-84
2023/07/07 13:28:18;;;;;;;0.98;0.80;;;13.60;99.90;;;;;;5010929;28;20210;-83
2023/07/07 13:30:53;;;;;;;0.85;0.75;;;13.60;99.90;;;;;;5008147;28;20241;-84